createdAt,value
2022-12-11T00:04:10.596Z,98555.75
2022-12-11T00:09:12.618Z,98564.81
2022-12-11T00:14:15.535Z,98550.59
2022-12-11T00:19:17.627Z,98553.38
2022-12-11T00:24:19.901Z,98549.75
2022-12-11T00:29:21.855Z,98541.47
2022-12-11T00:34:23.892Z,98544.91
2022-12-11T00:39:25.918Z,98539.38
2022-12-11T00:44:28.081Z,98536.22
2022-12-11T00:49:30.261Z,98545.44
2022-12-11T00:54:32.333Z,98549.25
2022-12-11T00:59:34.327Z,98543.06
2022-12-11T01:04:37.269Z,98549.25
2022-12-11T01:09:57.852Z,98565.84
2022-12-11T01:14:59.878Z,98571.47
2022-12-11T01:20:01.842Z,98568.16
2022-12-11T01:25:05.682Z,98550.81
2022-12-11T01:30:09.112Z,98568.25
2022-12-11T01:35:13.244Z,98572.19
2022-12-11T01:40:17.700Z,98558.00
2022-12-11T01:45:24.628Z,98566.53
2022-12-11T01:50:31.209Z,98560.59
2022-12-11T01:55:34.376Z,98562.41
2022-12-11T02:00:36.539Z,98573.19
2022-12-11T02:05:38.959Z,98583.28
2022-12-11T02:10:59.821Z,98579.25
2022-12-11T02:16:19.767Z,98582.84
2022-12-11T02:21:28.589Z,98583.44
2022-12-11T02:26:49.508Z,98587.09
2022-12-11T02:32:03.384Z,98601.38
2022-12-11T02:37:09.733Z,98597.34
2022-12-11T02:42:14.323Z,98608.34
2022-12-11T02:47:18.447Z,98591.63
2022-12-11T02:52:23.922Z,98616.94
2022-12-11T02:57:37.546Z,98627.66
2022-12-11T03:02:41.156Z,98611.22
2022-12-11T03:07:44.874Z,98616.50
2022-12-11T03:12:53.755Z,98646.16
2022-12-11T03:18:17.647Z,98644.22
2022-12-11T03:23:31.026Z,98655.50
2022-12-11T03:28:42.415Z,98644.44
2022-12-11T03:33:49.111Z,98655.72
2022-12-11T03:39:06.435Z,98646.22
2022-12-11T03:44:09.259Z,98667.16
2022-12-11T03:49:16.863Z,98669.84
2022-12-11T03:54:20.041Z,98674.41
2022-12-11T03:59:22.132Z,98684.19
2022-12-11T04:04:24.182Z,98693.19
2022-12-11T04:09:26.214Z,98707.50
2022-12-11T04:14:46.969Z,98686.22
2022-12-11T04:20:07.524Z,98716.47
2022-12-11T04:25:09.903Z,98721.84
2022-12-11T04:30:15.438Z,98721.84
2022-12-11T04:35:18.028Z,98721.31
2022-12-11T04:40:20.647Z,98707.53
2022-12-11T04:45:22.643Z,98714.84
2022-12-11T04:50:24.850Z,98706.34
2022-12-11T04:55:26.858Z,98705.19
2022-12-11T05:00:28.892Z,98713.31
2022-12-11T05:05:31.213Z,98708.38
2022-12-11T05:10:33.345Z,98721.84
2022-12-11T05:15:35.390Z,98725.75
2022-12-11T05:20:37.438Z,98738.16
2022-12-11T05:25:39.490Z,98750.69
2022-12-11T05:30:41.454Z,98750.97
2022-12-11T05:35:52.751Z,98759.75
2022-12-11T05:40:59.545Z,98771.63
2022-12-11T05:46:12.408Z,98782.34
2022-12-11T05:51:15.699Z,98795.84
2022-12-11T05:56:29.782Z,98799.16
2022-12-11T06:01:38.390Z,98828.47
2022-12-11T06:06:40.813Z,98830.41
2022-12-11T06:11:43.075Z,98835.06
2022-12-11T06:16:45.179Z,98854.06
2022-12-11T06:21:48.960Z,98852.81
2022-12-11T06:26:51.107Z,98865.50
2022-12-11T06:31:53.143Z,98874.44
2022-12-11T06:36:55.208Z,98877.59
2022-12-11T06:41:57.233Z,98884.75
2022-12-11T06:46:59.446Z,98857.38
2022-12-11T06:52:01.439Z,98868.53
2022-12-11T06:57:03.569Z,98863.59
2022-12-11T07:02:05.673Z,98860.00
2022-12-11T07:07:09.097Z,98871.81
2022-12-11T07:12:11.157Z,98866.88
2022-12-11T07:17:13.194Z,98884.75
2022-12-11T07:22:15.297Z,98882.00
2022-12-11T07:27:17.416Z,98897.81
2022-12-11T07:32:19.525Z,98906.63
2022-12-11T07:37:21.612Z,98892.44
2022-12-11T07:42:23.885Z,98914.47
2022-12-11T07:47:25.879Z,98911.84
2022-12-11T07:52:28.872Z,98897.78
2022-12-11T07:57:30.903Z,98888.97
2022-12-11T08:02:37.169Z,98908.81
2022-12-11T08:07:39.880Z,98919.97
2022-12-11T08:12:41.908Z,98921.75
2022-12-11T08:17:43.925Z,98921.63
2022-12-11T08:22:45.990Z,98925.06
2022-12-11T08:27:49.038Z,98939.22
2022-12-11T08:32:51.071Z,98931.91
2022-12-11T08:37:53.027Z,98947.22
2022-12-11T08:42:54.993Z,98951.91
2022-12-11T08:47:59.204Z,98955.44
2022-12-11T08:53:01.325Z,98962.34
2022-12-11T08:58:03.879Z,98975.97
2022-12-11T09:03:11.204Z,98987.00
2022-12-11T09:08:14.966Z,98974.31
2022-12-11T09:13:17.087Z,98974.47
2022-12-11T09:18:19.083Z,98982.19
2022-12-11T09:23:21.020Z,98977.63
2022-12-11T09:28:23.281Z,98983.84
2022-12-11T09:33:25.363Z,98985.50
2022-12-11T09:38:27.723Z,98988.53
2022-12-11T09:43:47.316Z,98998.06
2022-12-11T09:48:49.858Z,99000.97
2022-12-11T09:53:52.835Z,99010.75
2022-12-11T09:59:28.957Z,99038.31
2022-12-11T10:05:01.599Z,99044.53
2022-12-11T10:10:38.893Z,99041.91
2022-12-11T10:15:50.945Z,99050.44
2022-12-11T10:20:54.395Z,99037.09
2022-12-11T10:26:07.577Z,99026.34
2022-12-11T10:31:15.372Z,99010.34
2022-12-11T10:36:29.368Z,99007.19
2022-12-11T10:41:39.198Z,98997.50
2022-12-11T10:46:41.317Z,99010.03
2022-12-11T10:51:43.674Z,99008.81
2022-12-11T10:56:48.576Z,99012.13
2022-12-11T11:01:50.875Z,99015.28
2022-12-11T11:07:31.469Z,99019.16
2022-12-11T11:12:45.331Z,99010.47
2022-12-11T11:17:54.979Z,98995.88
2022-12-11T11:23:01.792Z,99016.94
2022-12-11T11:28:16.539Z,99014.59
2022-12-11T11:33:21.139Z,99002.75
2022-12-11T11:38:28.294Z,98987.28
2022-12-11T11:43:38.099Z,98988.13
2022-12-11T11:48:40.049Z,98993.41
2022-12-11T11:53:47.335Z,98978.53
2022-12-11T11:59:08.572Z,98990.66
2022-12-11T12:04:11.695Z,98992.88
2022-12-11T12:09:51.800Z,98997.28
2022-12-11T12:14:59.607Z,98992.03
2022-12-11T12:20:16.969Z,98992.47
2022-12-11T12:25:31.158Z,98997.16
2022-12-11T12:30:43.139Z,99013.09
2022-12-11T12:36:12.670Z,99023.00
2022-12-11T12:41:36.651Z,99013.50
2022-12-11T12:47:03.320Z,99013.06
2022-12-11T12:52:10.939Z,99001.22
2022-12-11T12:57:13.058Z,99005.84
2022-12-11T13:02:17.517Z,99013.97
2022-12-11T13:07:30.201Z,99013.00
2022-12-11T13:12:40.856Z,98995.53
2022-12-11T13:17:42.826Z,98995.28
2022-12-11T13:23:05.980Z,99006.00
2022-12-11T13:28:22.176Z,99009.56
2022-12-11T13:33:24.351Z,99000.19
2022-12-11T13:38:26.353Z,99013.66
2022-12-11T13:43:31.109Z,98995.34
2022-12-11T13:48:37.955Z,98967.69
2022-12-11T13:53:39.918Z,98952.84
2022-12-11T13:58:42.033Z,98936.88
2022-12-11T14:03:54.986Z,98908.09
2022-12-11T14:09:00.222Z,98939.75
2022-12-11T14:14:04.908Z,98930.63
2022-12-11T14:19:09.858Z,98925.13
2022-12-11T14:24:14.337Z,98925.13
2022-12-11T14:29:33.200Z,98936.19
2022-12-11T14:34:45.596Z,98917.72
2022-12-11T14:39:57.243Z,98917.44
2022-12-11T14:45:13.827Z,98913.00
2022-12-11T14:50:23.819Z,98909.75
2022-12-11T14:55:29.659Z,98918.22
2022-12-11T15:00:37.125Z,98916.53
2022-12-11T15:05:58.075Z,98906.91
2022-12-11T15:11:06.250Z,98905.34
2022-12-11T15:16:08.608Z,98892.81
2022-12-11T15:21:12.772Z,98847.00
2022-12-11T15:26:14.869Z,98857.88
2022-12-11T15:31:25.421Z,98851.44
2022-12-11T15:36:30.367Z,98833.56
2022-12-11T15:41:34.785Z,98818.34
2022-12-11T15:46:37.942Z,98817.91
2022-12-11T15:51:43.196Z,98820.25
2022-12-11T15:56:45.528Z,98806.88
2022-12-11T16:01:47.586Z,98800.53
2022-12-11T16:06:49.848Z,98825.16
2022-12-11T16:11:51.837Z,98823.38
2022-12-11T16:16:53.816Z,98818.16
2022-12-11T16:21:55.801Z,98794.53
2022-12-11T16:26:58.145Z,98761.84
2022-12-11T16:32:00.148Z,98772.16
2022-12-11T16:37:02.390Z,98769.38
2022-12-11T16:42:06.084Z,98758.69
2022-12-11T16:47:08.102Z,98757.72
2022-12-11T16:52:10.783Z,98740.97
2022-12-11T16:57:12.758Z,98736.13
2022-12-11T17:02:14.828Z,98724.47
2022-12-11T17:07:16.929Z,98714.56
2022-12-11T17:12:19.049Z,98693.28
2022-12-11T17:17:21.279Z,98676.22
2022-12-11T17:22:23.306Z,98649.97
2022-12-11T17:27:25.348Z,98624.84
2022-12-11T17:32:27.344Z,98640.63
2022-12-11T17:37:29.526Z,98630.16
2022-12-11T17:42:31.555Z,98633.63
2022-12-11T17:47:33.558Z,98626.22
2022-12-11T17:52:42.511Z,98623.84
2022-12-11T17:57:46.071Z,98577.13
2022-12-11T18:02:49.140Z,98622.47
2022-12-11T18:07:57.300Z,98592.09
2022-12-11T18:13:00.557Z,98596.63
2022-12-11T18:18:02.528Z,98607.47
2022-12-11T18:23:05.025Z,98594.31
2022-12-11T18:28:06.961Z,98586.69
2022-12-11T18:33:08.966Z,98598.66
2022-12-11T18:38:10.968Z,98604.97
2022-12-11T18:43:13.450Z,98612.06
2022-12-11T18:48:15.484Z,98610.69
2022-12-11T18:53:18.890Z,98605.19
2022-12-11T18:58:21.084Z,98609.88
2022-12-11T19:03:23.150Z,98595.84
2022-12-11T19:08:25.305Z,98590.56
2022-12-11T19:13:27.409Z,98580.75
2022-12-11T19:18:29.493Z,98562.16
2022-12-11T19:23:31.866Z,98562.72
2022-12-11T19:28:34.524Z,98534.59
2022-12-11T19:33:36.960Z,98527.56
2022-12-11T19:38:41.051Z,98521.00
2022-12-11T19:43:43.481Z,98531.25
2022-12-11T19:48:46.077Z,98535.50
2022-12-11T19:53:48.392Z,98531.94
2022-12-11T19:58:50.398Z,98518.84
2022-12-11T20:03:53.662Z,98510.03
2022-12-11T20:08:55.692Z,98516.91
2022-12-11T20:13:57.790Z,98502.59
2022-12-11T20:18:59.758Z,98531.13
2022-12-11T20:24:01.761Z,98511.94
2022-12-11T20:29:07.434Z,98508.84
2022-12-11T20:34:09.446Z,98481.50
2022-12-11T20:39:11.678Z,98479.41
2022-12-11T20:44:13.660Z,98464.66
2022-12-11T20:49:15.646Z,98450.78
2022-12-11T20:54:17.634Z,98419.06
2022-12-11T20:59:19.784Z,98426.56
2022-12-11T21:04:22.458Z,98415.94
2022-12-11T21:09:26.567Z,98415.84
2022-12-11T21:14:30.238Z,98417.19
2022-12-11T21:19:32.442Z,98408.97
2022-12-11T21:24:34.491Z,98409.22
2022-12-11T21:29:36.542Z,98396.31
2022-12-11T21:34:38.645Z,98371.41
2022-12-11T21:39:40.716Z,98367.19
2022-12-11T21:50:05.683Z,98355.28
2022-12-11T21:55:08.118Z,98328.28
2022-12-11T22:00:10.683Z,98309.81
2022-12-11T22:05:16.122Z,98307.66
2022-12-11T22:10:18.311Z,98261.03
2022-12-11T22:15:20.319Z,98271.69
2022-12-11T22:20:22.412Z,98252.69
2022-12-11T22:25:24.796Z,98258.66
2022-12-11T22:30:26.875Z,98232.31
2022-12-11T22:35:29.045Z,98213.50
2022-12-11T22:40:31.142Z,98227.06
2022-12-11T22:45:33.595Z,98197.47
2022-12-11T22:50:37.794Z,98198.00
2022-12-11T22:55:40.118Z,98187.84
2022-12-11T23:00:42.187Z,98171.47
2022-12-11T23:05:44.264Z,98139.22
2022-12-11T23:10:46.481Z,98142.53
2022-12-11T23:15:48.515Z,98108.13
2022-12-11T23:20:50.773Z,98104.34
2022-12-11T23:25:53.326Z,98110.75
2022-12-11T23:30:55.457Z,98085.69
2022-12-11T23:35:58.228Z,98096.66
2022-12-11T23:41:02.493Z,98084.72
2022-12-11T23:46:07.221Z,98077.50
2022-12-11T23:51:13.127Z,98102.91
2022-12-11T23:56:25.436Z,98053.59
